Avilla, MO

6:35 AM CDT on August 01, 2014 (GMT -0500)
RAWS MT VERNON MO US (MMVVM7) Elev 1266 ft | 37.19 °N, 93.93 °W | Change Station
Active Advisory: Dense Fog Advisory Active Notice: Record Report

Current weather conditions updated 35 minutes ago

Overcast
Overcast
60 °F
Feels Like 60 °F
N
2
Wind Variable Wind from SE
Gusts 3.0 mph

Today is forecast to be Warmer than yesterday.

Today
High -- | Low -- °F
--% Chance of Precip.
Yesterday
High -- | Low -- °F
Precip. -- in
6:21 AM 8:23 PM
Waxing Crescent, 26% visible
Pressure 30.06 in
Visibility 0.8 miles
Clouds Overcast 300 ft
Dew Point 59 °F
Humidity 98%
Rainfall 0.01 in
Snow Depth Not available.
UV 0 out of 12
Pollen 6.60 out of 12
Air Quality Not available.
Flu Activity Not available.
METAR KJLN 011053Z 00000KT 3/4SM BR OVC003 18/18 A3009 RMK AO2 SLP179 T01780178

More Conditions Fewer Conditions

Pressure 30.06 in
Visibility 0.8 miles
Clouds Overcast 300 ft
Dew Point 59 °F
Humidity 98%
Rainfall 0.01 in
Snow Depth Not available.
UV 0 out of 12
Pollen 6.60 out of 12
Air Quality Not available.
Flu Activity Not available.
METAR KJLN 011053Z 00000KT 3/4SM BR OVC003 18/18 A3009 RMK AO2 SLP179 T01780178

More Conditions Fewer Conditions

10-Day Weather Forecast

Almanac

Astronomy

Aug. 01, 2014 Rise Set
Actual Time 6:21 AM CDT 8:23 PM CDT
Civil Twilight 5:52 AM CDT 8:52 PM CDT
Nautical Twilight 5:17 AM CDT 9:27 PM CDT
Astronomical Twilight 4:39 AM CDT 10:05 PM CDT
Moon 11:37 AM CDT 11:17 PM CDT
Length of Visible Light 15h 00m
Length of Day
14h 02m
Tomorrow will be 1m 47s shorter.
Waxing Crescent, 26% of the Moon is Illuminated
Today
Waxing Crescent
Aug 3
First Quarter
Aug 10
Full
Aug 17
Last Quarter
Aug 25
New

Today's Extremes

State Highs State Lows

Community

WunderPhotos

Upload Photos

1,739,538 photos uploaded!

Nearby

Snow Depth

Station Depth Elevation
No new snow has been reported.

Earthquake Activity

City Distance Mag. Time & Date
No recent earthquake activity has been reported nearby.
Minimum magnitude displayed is 2.5.

Coastal Water Temperatures

Place Temperature
No Stations Reporting

Nearby Weather Stations

Station Location Temp. Dew Point Humidity Wind Precip. Elev Updated Type
RAWS MT VERNON MO, La Russell, MO 60 °F 59 °F 98% SE  at  2 mph 0.00 in / hr 1266 ft 6:00 AM CDT MADIS
MesoWest MT VERNON , Freistatt, MO 61 °F 61 °F 100% SE  at  1 mph 0.00 in / hr 1149 ft 5:00 AM CDT MADIS
Monett, MO 62.2 °F 62 °F 100% North  at  0.5 mph 0.00 in / hr 1306 ft 6:35 AM CDT Normal
South east of Granby, Granby, MO 61.3 °F 61 °F 100% West  at  0.0 mph 0.00 in / hr 1217 ft 6:35 AM CDT Rapid Fire
Greenfield West (WOHSN), Greenfield, MO 61.7 °F 61 °F 99% SE  at  0.0 mph - / hr 1066 ft 6:23 AM CDT Normal
Mohaska, Joplin, MO 64.9 °F 64 °F 96% NW  at  0.0 mph 0.00 in / hr 1010 ft 6:24 AM CDT Normal

Show More Stations Show Fewer Stations